sensor_id;sensor_type;location;lat;lon;timestamp;temperature;humidity
19966;DHT22;10144;50.874;4.762;2023-09-19T00:00:46;16.40;99.90
19966;DHT22;10144;50.874;4.762;2023-09-19T00:03:16;16.40;99.90
19966;DHT22;10144;50.874;4.762;2023-09-19T00:05:45;16.40;99.90
19966;DHT22;10144;50.874;4.762;2023-09-19T00:08:14;16.30;99.90
19966;DHT22;10144;50.874;4.762;2023-09-19T00:10:40;16.30;99.90
19966;DHT22;10144;50.874;4.762;2023-09-19T00:13:09;16.30;99.90
19966;DHT22;10144;50.874;4.762;2023-09-19T00:15:41;16.30;99.90
19966;DHT22;10144;50.874;4.762;2023-09-19T00:18:09;16.30;99.90
19966;DHT22;10144;50.874;4.762;2023-09-19T00:20:39;16.30;99.90
19966;DHT22;10144;50.874;4.762;2023-09-19T00:23:06;16.30;99.90
19966;DHT22;10144;50.874;4.762;2023-09-19T00:25:36;16.20;99.90
19966;DHT22;10144;50.874;4.762;2023-09-19T00:28:05;16.20;99.90
19966;DHT22;10144;50.874;4.762;2023-09-19T00:30:36;16.20;99.90
19966;DHT22;10144;50.874;4.762;2023-09-19T00:33:09;16.20;99.90
19966;DHT22;10144;50.874;4.762;2023-09-19T00:35:39;16.20;99.90
19966;DHT22;10144;50.874;4.762;2023-09-19T00:38:07;16.20;99.90
19966;DHT22;10144;50.874;4.762;2023-09-19T00:40:36;16.20;99.90
19966;DHT22;10144;50.874;4.762;2023-09-19T00:43:04;16.10;99.90
19966;DHT22;10144;50.874;4.762;2023-09-19T00:45:33;16.10;99.90
19966;DHT22;10144;50.874;4.762;2023-09-19T00:48:02;16.00;99.90
19966;DHT22;10144;50.874;4.762;2023-09-19T00:50:32;16.10;99.90
19966;DHT22;10144;50.874;4.762;2023-09-19T00:53:04;16.10;99.90
19966;DHT22;10144;50.874;4.762;2023-09-19T00:55:39;16.10;99.90
19966;DHT22;10144;50.874;4.762;2023-09-19T00:58:11;16.10;99.90
19966;DHT22;10144;50.874;4.762;2023-09-19T01:00:37;16.10;99.90
19966;DHT22;10144;50.874;4.762;2023-09-19T01:03:05;16.10;99.90
19966;DHT22;10144;50.874;4.762;2023-09-19T01:05:37;16.10;99.90
19966;DHT22;10144;50.874;4.762;2023-09-19T01:08:06;16.00;99.90
19966;DHT22;10144;50.874;4.762;2023-09-19T01:10:33;16.10;99.90
19966;DHT22;10144;50.874;4.762;2023-09-19T01:13:22;16.10;99.90
19966;DHT22;10144;50.874;4.762;2023-09-19T01:29:48;16.10;99.90
19966;DHT22;10144;50.874;4.762;2023-09-19T01:32:19;16.20;99.90
19966;DHT22;10144;50.874;4.762;2023-09-19T01:34:59;16.20;99.90
19966;DHT22;10144;50.874;4.762;2023-09-19T01:37:32;16.20;99.90
19966;DHT22;10144;50.874;4.762;2023-09-19T01:40:06;16.00;99.90
19966;DHT22;10144;50.874;4.762;2023-09-19T01:43:01;16.10;99.90
19966;DHT22;10144;50.874;4.762;2023-09-19T01:51:07;16.00;99.90
19966;DHT22;10144;50.874;4.762;2023-09-19T01:54:04;15.90;99.90
19966;DHT22;10144;50.874;4.762;2023-09-19T01:56:38;15.90;99.90
19966;DHT22;10144;50.874;4.762;2023-09-19T01:59:22;15.80;99.90
19966;DHT22;10144;50.874;4.762;2023-09-19T02:01:52;15.80;99.90
19966;DHT22;10144;50.874;4.762;2023-09-19T02:04:18;15.80;99.90
19966;DHT22;10144;50.874;4.762;2023-09-19T02:06:44;15.80;99.90
19966;DHT22;10144;50.874;4.762;2023-09-19T02:09:16;16.00;99.90
19966;DHT22;10144;50.874;4.762;2023-09-19T02:11:41;16.00;99.90
19966;DHT22;10144;50.874;4.762;2023-09-19T02:14:08;15.90;99.90
19966;DHT22;10144;50.874;4.762;2023-09-19T02:16:37;16.00;99.90
19966;DHT22;10144;50.874;4.762;2023-09-19T02:19:09;15.90;99.90
19966;DHT22;10144;50.874;4.762;2023-09-19T02:21:38;15.90;99.90
19966;DHT22;10144;50.874;4.762;2023-09-19T02:24:07;15.80;99.90
19966;DHT22;10144;50.874;4.762;2023-09-19T02:26:36;15.80;99.90
19966;DHT22;10144;50.874;4.762;2023-09-19T02:29:04;15.80;99.90
19966;DHT22;10144;50.874;4.762;2023-09-19T02:31:30;15.90;99.90
19966;DHT22;10144;50.874;4.762;2023-09-19T02:33:56;15.80;99.90
19966;DHT22;10144;50.874;4.762;2023-09-19T02:36:25;15.90;99.90
19966;DHT22;10144;50.874;4.762;2023-09-19T02:38:52;15.90;99.90
19966;DHT22;10144;50.874;4.762;2023-09-19T02:41:18;16.00;99.90
19966;DHT22;10144;50.874;4.762;2023-09-19T02:43:45;15.90;99.90
19966;DHT22;10144;50.874;4.762;2023-09-19T02:46:12;15.90;99.90
19966;DHT22;10144;50.874;4.762;2023-09-19T02:48:41;15.80;99.90
19966;DHT22;10144;50.874;4.762;2023-09-19T02:51:13;15.80;99.90
19966;DHT22;10144;50.874;4.762;2023-09-19T02:53:39;15.70;99.90
19966;DHT22;10144;50.874;4.762;2023-09-19T02:56:11;15.70;99.90
19966;DHT22;10144;50.874;4.762;2023-09-19T02:58:39;15.80;99.90
19966;DHT22;10144;50.874;4.762;2023-09-19T03:01:10;15.70;99.90
19966;DHT22;10144;50.874;4.762;2023-09-19T03:03:39;15.70;99.90
19966;DHT22;10144;50.874;4.762;2023-09-19T03:06:08;15.70;99.90
19966;DHT22;10144;50.874;4.762;2023-09-19T03:08:39;15.70;99.90
19966;DHT22;10144;50.874;4.762;2023-09-19T03:11:07;15.70;99.90
19966;DHT22;10144;50.874;4.762;2023-09-19T03:13:35;15.70;99.90
19966;DHT22;10144;50.874;4.762;2023-09-19T03:16:17;15.60;99.90
19966;DHT22;10144;50.874;4.762;2023-09-19T03:18:50;15.70;99.90
19966;DHT22;10144;50.874;4.762;2023-09-19T03:21:16;15.80;99.90
19966;DHT22;10144;50.874;4.762;2023-09-19T03:23:43;15.70;99.90
19966;DHT22;10144;50.874;4.762;2023-09-19T03:26:17;15.80;99.90
19966;DHT22;10144;50.874;4.762;2023-09-19T03:28:43;15.90;99.90
19966;DHT22;10144;50.874;4.762;2023-09-19T03:31:11;15.80;99.90
19966;DHT22;10144;50.874;4.762;2023-09-19T03:33:40;15.70;99.90
19966;DHT22;10144;50.874;4.762;2023-09-19T03:36:06;15.60;99.90
19966;DHT22;10144;50.874;4.762;2023-09-19T03:38:34;15.60;99.90
19966;DHT22;10144;50.874;4.762;2023-09-19T03:41:03;15.60;99.90
19966;DHT22;10144;50.874;4.762;2023-09-19T03:43:32;15.70;99.90
19966;DHT22;10144;50.874;4.762;2023-09-19T03:46:02;15.80;99.90
19966;DHT22;10144;50.874;4.762;2023-09-19T03:48:34;15.80;99.90
19966;DHT22;10144;50.874;4.762;2023-09-19T03:51:02;15.70;99.90
19966;DHT22;10144;50.874;4.762;2023-09-19T03:53:28;15.70;99.90
19966;DHT22;10144;50.874;4.762;2023-09-19T03:55:57;15.60;99.90
19966;DHT22;10144;50.874;4.762;2023-09-19T03:58:29;15.60;99.90
19966;DHT22;10144;50.874;4.762;2023-09-19T04:00:58;15.70;99.90
19966;DHT22;10144;50.874;4.762;2023-09-19T04:03:26;15.90;99.90
19966;DHT22;10144;50.874;4.762;2023-09-19T04:06:01;15.90;99.90
19966;DHT22;10144;50.874;4.762;2023-09-19T04:08:30;15.90;99.90
19966;DHT22;10144;50.874;4.762;2023-09-19T04:10:58;15.80;99.90
19966;DHT22;10144;50.874;4.762;2023-09-19T04:13:27;15.80;99.90
19966;DHT22;10144;50.874;4.762;2023-09-19T04:15:56;15.80;99.90
19966;DHT22;10144;50.874;4.762;2023-09-19T04:18:22;15.70;99.90
19966;DHT22;10144;50.874;4.762;2023-09-19T04:20:52;15.70;99.90
19966;DHT22;10144;50.874;4.762;2023-09-19T04:23:22;15.60;99.90
19966;DHT22;10144;50.874;4.762;2023-09-19T04:25:51;15.60;99.90
19966;DHT22;10144;50.874;4.762;2023-09-19T04:28:17;15.60;99.90
19966;DHT22;10144;50.874;4.762;2023-09-19T04:30:44;15.60;99.90
19966;DHT22;10144;50.874;4.762;2023-09-19T04:33:11;15.60;99.90
19966;DHT22;10144;50.874;4.762;2023-09-19T04:35:49;15.50;99.90
19966;DHT22;10144;50.874;4.762;2023-09-19T04:38:17;15.50;99.90
19966;DHT22;10144;50.874;4.762;2023-09-19T04:40:43;15.50;99.90
19966;DHT22;10144;50.874;4.762;2023-09-19T04:43:11;15.50;99.90
19966;DHT22;10144;50.874;4.762;2023-09-19T04:45:39;15.50;99.90
19966;DHT22;10144;50.874;4.762;2023-09-19T04:48:08;15.40;99.90
19966;DHT22;10144;50.874;4.762;2023-09-19T04:50:35;15.30;99.90
19966;DHT22;10144;50.874;4.762;2023-09-19T04:53:04;15.30;99.90
19966;DHT22;10144;50.874;4.762;2023-09-19T04:55:33;15.20;99.90
19966;DHT22;10144;50.874;4.762;2023-09-19T04:57:59;15.30;99.90
19966;DHT22;10144;50.874;4.762;2023-09-19T05:00:25;15.30;99.90
19966;DHT22;10144;50.874;4.762;2023-09-19T05:02:56;15.30;99.90
19966;DHT22;10144;50.874;4.762;2023-09-19T05:05:22;15.30;99.90
19966;DHT22;10144;50.874;4.762;2023-09-19T05:07:51;15.30;99.90
19966;DHT22;10144;50.874;4.762;2023-09-19T05:10:19;15.30;99.90
19966;DHT22;10144;50.874;4.762;2023-09-19T05:12:45;15.30;99.90
19966;DHT22;10144;50.874;4.762;2023-09-19T05:15:13;15.30;99.90
19966;DHT22;10144;50.874;4.762;2023-09-19T05:17:51;15.30;99.90
19966;DHT22;10144;50.874;4.762;2023-09-19T05:20:17;15.30;99.90
19966;DHT22;10144;50.874;4.762;2023-09-19T05:23:05;15.30;99.90
19966;DHT22;10144;50.874;4.762;2023-09-19T05:25:39;15.30;99.90
19966;DHT22;10144;50.874;4.762;2023-09-19T05:28:06;15.20;99.90
19966;DHT22;10144;50.874;4.762;2023-09-19T05:30:38;15.30;99.90
19966;DHT22;10144;50.874;4.762;2023-09-19T05:33:05;15.40;99.90
19966;DHT22;10144;50.874;4.762;2023-09-19T05:35:34;15.40;99.90
19966;DHT22;10144;50.874;4.762;2023-09-19T05:38:06;15.30;99.90
19966;DHT22;10144;50.874;4.762;2023-09-19T05:40:35;15.30;99.90
19966;DHT22;10144;50.874;4.762;2023-09-19T05:43:01;15.20;99.90
19966;DHT22;10144;50.874;4.762;2023-09-19T05:45:32;15.20;99.90
19966;DHT22;10144;50.874;4.762;2023-09-19T05:48:16;15.30;99.90
19966;DHT22;10144;50.874;4.762;2023-09-19T05:50:45;15.30;99.90
19966;DHT22;10144;50.874;4.762;2023-09-19T05:53:15;15.30;99.90
19966;DHT22;10144;50.874;4.762;2023-09-19T05:55:43;15.30;99.90
19966;DHT22;10144;50.874;4.762;2023-09-19T05:58:09;15.40;99.90
19966;DHT22;10144;50.874;4.762;2023-09-19T06:00:36;15.40;99.90
19966;DHT22;10144;50.874;4.762;2023-09-19T06:03:05;15.40;99.90
19966;DHT22;10144;50.874;4.762;2023-09-19T06:05:32;15.40;99.90
19966;DHT22;10144;50.874;4.762;2023-09-19T06:07:59;15.40;99.90
19966;DHT22;10144;50.874;4.762;2023-09-19T06:10:39;15.40;99.90
19966;DHT22;10144;50.874;4.762;2023-09-19T06:13:07;15.40;99.90
19966;DHT22;10144;50.874;4.762;2023-09-19T06:15:39;15.50;99.90
19966;DHT22;10144;50.874;4.762;2023-09-19T06:18:11;15.50;99.90
19966;DHT22;10144;50.874;4.762;2023-09-19T06:20:42;15.50;99.90
19966;DHT22;10144;50.874;4.762;2023-09-19T06:23:38;15.60;99.90
19966;DHT22;10144;50.874;4.762;2023-09-19T06:26:07;15.60;99.90
19966;DHT22;10144;50.874;4.762;2023-09-19T06:28:33;15.70;99.90
19966;DHT22;10144;50.874;4.762;2023-09-19T06:30:59;15.90;99.90
19966;DHT22;10144;50.874;4.762;2023-09-19T06:33:30;15.90;99.90
19966;DHT22;10144;50.874;4.762;2023-09-19T06:35:58;16.10;99.90
19966;DHT22;10144;50.874;4.762;2023-09-19T06:38:30;16.20;99.90
19966;DHT22;10144;50.874;4.762;2023-09-19T06:40:58;16.40;99.90
19966;DHT22;10144;50.874;4.762;2023-09-19T06:43:27;16.50;99.90
19966;DHT22;10144;50.874;4.762;2023-09-19T06:45:59;16.60;99.90
19966;DHT22;10144;50.874;4.762;2023-09-19T06:48:31;16.80;99.90
19966;DHT22;10144;50.874;4.762;2023-09-19T06:51:00;16.90;99.90
19966;DHT22;10144;50.874;4.762;2023-09-19T06:53:36;17.00;99.90
19966;DHT22;10144;50.874;4.762;2023-09-19T06:56:04;17.10;99.90
19966;DHT22;10144;50.874;4.762;2023-09-19T06:58:37;17.20;99.90
19966;DHT22;10144;50.874;4.762;2023-09-19T07:01:03;17.30;99.90
19966;DHT22;10144;50.874;4.762;2023-09-19T07:03:29;17.30;99.90
19966;DHT22;10144;50.874;4.762;2023-09-19T07:05:55;17.30;99.90
19966;DHT22;10144;50.874;4.762;2023-09-19T07:08:21;17.30;99.90
19966;DHT22;10144;50.874;4.762;2023-09-19T07:10:47;17.40;99.90
19966;DHT22;10144;50.874;4.762;2023-09-19T07:13:18;17.50;99.90
19966;DHT22;10144;50.874;4.762;2023-09-19T07:15:44;17.60;99.90
19966;DHT22;10144;50.874;4.762;2023-09-19T07:18:14;17.50;99.90
19966;DHT22;10144;50.874;4.762;2023-09-19T07:20:40;17.60;99.90
19966;DHT22;10144;50.874;4.762;2023-09-19T07:23:18;17.80;99.90
19966;DHT22;10144;50.874;4.762;2023-09-19T07:25:44;17.90;99.90
19966;DHT22;10144;50.874;4.762;2023-09-19T07:28:10;18.20;99.90
19966;DHT22;10144;50.874;4.762;2023-09-19T07:30:37;18.30;99.90
19966;DHT22;10144;50.874;4.762;2023-09-19T07:33:03;18.60;91.70
19966;DHT22;10144;50.874;4.762;2023-09-19T07:35:30;18.90;69.40
19966;DHT22;10144;50.874;4.762;2023-09-19T07:37:56;19.10;43.30
19966;DHT22;10144;50.874;4.762;2023-09-19T07:40:24;19.40;59.60
19966;DHT22;10144;50.874;4.762;2023-09-19T07:42:52;19.70;59.50
19966;DHT22;10144;50.874;4.762;2023-09-19T07:45:18;19.80;42.20
19966;DHT22;10144;50.874;4.762;2023-09-19T07:47:45;20.10;14.00
19966;DHT22;10144;50.874;4.762;2023-09-19T07:50:11;20.50;1.00
19966;DHT22;10144;50.874;4.762;2023-09-19T07:52:37;20.70;1.00
19966;DHT22;10144;50.874;4.762;2023-09-19T07:55:05;20.70;1.00
19966;DHT22;10144;50.874;4.762;2023-09-19T07:57:35;20.80;1.00
19966;DHT22;10144;50.874;4.762;2023-09-19T08:00:03;20.70;1.00
19966;DHT22;10144;50.874;4.762;2023-09-19T08:02:36;20.70;1.00
19966;DHT22;10144;50.874;4.762;2023-09-19T08:05:06;20.70;1.00
19966;DHT22;10144;50.874;4.762;2023-09-19T08:07:32;20.80;1.00
19966;DHT22;10144;50.874;4.762;2023-09-19T08:09:58;20.70;1.00
19966;DHT22;10144;50.874;4.762;2023-09-19T08:12:24;20.80;1.00
19966;DHT22;10144;50.874;4.762;2023-09-19T08:14:50;20.80;1.00
19966;DHT22;10144;50.874;4.762;2023-09-19T08:17:16;20.90;1.00
19966;DHT22;10144;50.874;4.762;2023-09-19T08:19:42;21.00;1.00
19966;DHT22;10144;50.874;4.762;2023-09-19T08:22:10;21.00;1.00
19966;DHT22;10144;50.874;4.762;2023-09-19T08:24:36;21.10;1.00
19966;DHT22;10144;50.874;4.762;2023-09-19T08:27:04;21.20;1.00
19966;DHT22;10144;50.874;4.762;2023-09-19T08:29:30;21.40;1.00
19966;DHT22;10144;50.874;4.762;2023-09-19T08:31:56;21.50;1.00
19966;DHT22;10144;50.874;4.762;2023-09-19T08:34:26;21.60;1.00
19966;DHT22;10144;50.874;4.762;2023-09-19T08:36:55;21.50;1.00
19966;DHT22;10144;50.874;4.762;2023-09-19T08:39:24;21.40;1.00
19966;DHT22;10144;50.874;4.762;2023-09-19T08:42:00;21.50;1.00
19966;DHT22;10144;50.874;4.762;2023-09-19T08:44:27;21.50;1.00
19966;DHT22;10144;50.874;4.762;2023-09-19T08:47:09;21.60;1.00
19966;DHT22;10144;50.874;4.762;2023-09-19T08:52:20;21.70;1.00
19966;DHT22;10144;50.874;4.762;2023-09-19T08:54:51;21.70;1.00
19966;DHT22;10144;50.874;4.762;2023-09-19T08:57:19;21.60;1.00
19966;DHT22;10144;50.874;4.762;2023-09-19T08:59:48;21.50;1.00
19966;DHT22;10144;50.874;4.762;2023-09-19T09:02:17;21.60;1.00
19966;DHT22;10144;50.874;4.762;2023-09-19T09:04:47;21.70;1.00
19966;DHT22;10144;50.874;4.762;2023-09-19T09:07:14;21.80;1.00
19966;DHT22;10144;50.874;4.762;2023-09-19T09:09:40;22.20;1.00
19966;DHT22;10144;50.874;4.762;2023-09-19T09:12:13;22.30;1.00
19966;DHT22;10144;50.874;4.762;2023-09-19T09:14:45;22.50;1.00
19966;DHT22;10144;50.874;4.762;2023-09-19T09:17:14;22.50;1.00
19966;DHT22;10144;50.874;4.762;2023-09-19T09:19:40;22.70;99.90
19966;DHT22;10144;50.874;4.762;2023-09-19T09:22:11;22.60;99.90
19966;DHT22;10144;50.874;4.762;2023-09-19T09:24:37;22.60;99.90
19966;DHT22;10144;50.874;4.762;2023-09-19T09:27:06;22.20;99.90
19966;DHT22;10144;50.874;4.762;2023-09-19T09:29:44;22.10;99.90
19966;DHT22;10144;50.874;4.762;2023-09-19T09:32:25;22.00;99.90
19966;DHT22;10144;50.874;4.762;2023-09-19T09:34:53;22.00;99.90
19966;DHT22;10144;50.874;4.762;2023-09-19T09:37:20;22.00;99.90
19966;DHT22;10144;50.874;4.762;2023-09-19T09:39:59;21.70;99.90
19966;DHT22;10144;50.874;4.762;2023-09-19T09:42:44;21.60;99.90
19966;DHT22;10144;50.874;4.762;2023-09-19T09:45:24;21.50;99.90
19966;DHT22;10144;50.874;4.762;2023-09-19T09:48:16;21.30;1.00
19966;DHT22;10144;50.874;4.762;2023-09-19T09:50:57;21.20;1.00
19966;DHT22;10144;50.874;4.762;2023-09-19T09:53:28;21.20;1.00
19966;DHT22;10144;50.874;4.762;2023-09-19T09:56:05;21.30;1.00
19966;DHT22;10144;50.874;4.762;2023-09-19T09:58:36;21.30;1.00
19966;DHT22;10144;50.874;4.762;2023-09-19T10:01:06;21.30;1.00
19966;DHT22;10144;50.874;4.762;2023-09-19T10:03:35;21.20;99.90
19966;DHT22;10144;50.874;4.762;2023-09-19T10:06:11;21.00;99.90
19966;DHT22;10144;50.874;4.762;2023-09-19T10:09:09;20.90;1.00
19966;DHT22;10144;50.874;4.762;2023-09-19T10:12:03;21.10;99.90
19966;DHT22;10144;50.874;4.762;2023-09-19T10:14:30;21.10;1.00
19966;DHT22;10144;50.874;4.762;2023-09-19T10:17:01;20.90;1.00
19966;DHT22;10144;50.874;4.762;2023-09-19T10:19:36;20.80;99.90
19966;DHT22;10144;50.874;4.762;2023-09-19T10:22:02;20.80;1.00
19966;DHT22;10144;50.874;4.762;2023-09-19T10:24:30;20.90;99.90
19966;DHT22;10144;50.874;4.762;2023-09-19T10:26:57;21.00;1.00
19966;DHT22;10144;50.874;4.762;2023-09-19T10:29:24;21.30;99.90
19966;DHT22;10144;50.874;4.762;2023-09-19T10:31:54;21.60;1.00
19966;DHT22;10144;50.874;4.762;2023-09-19T10:34:25;21.70;99.90
19966;DHT22;10144;50.874;4.762;2023-09-19T10:36:52;21.90;1.40
19966;DHT22;10144;50.874;4.762;2023-09-19T10:39:19;22.10;99.90
19966;DHT22;10144;50.874;4.762;2023-09-19T10:41:51;22.30;99.90
19966;DHT22;10144;50.874;4.762;2023-09-19T10:44:24;22.40;48.20
19966;DHT22;10144;50.874;4.762;2023-09-19T10:46:54;22.60;99.90
19966;DHT22;10144;50.874;4.762;2023-09-19T10:49:21;22.70;99.90
19966;DHT22;10144;50.874;4.762;2023-09-19T10:51:49;22.80;99.90
19966;DHT22;10144;50.874;4.762;2023-09-19T10:54:20;23.20;1.00
19966;DHT22;10144;50.874;4.762;2023-09-19T10:56:52;23.30;1.00
19966;DHT22;10144;50.874;4.762;2023-09-19T10:59:20;23.30;1.00
19966;DHT22;10144;50.874;4.762;2023-09-19T11:01:51;23.30;1.00
19966;DHT22;10144;50.874;4.762;2023-09-19T11:04:24;23.30;99.90
19966;DHT22;10144;50.874;4.762;2023-09-19T11:07:09;23.30;1.00
19966;DHT22;10144;50.874;4.762;2023-09-19T11:09:53;23.20;99.90
19966;DHT22;10144;50.874;4.762;2023-09-19T11:14:57;23.60;1.00
19966;DHT22;10144;50.874;4.762;2023-09-19T11:17:33;23.60;99.90
19966;DHT22;10144;50.874;4.762;2023-09-19T11:30:32;24.60;1.00
19966;DHT22;10144;50.874;4.762;2023-09-19T11:33:22;24.60;1.00
19966;DHT22;10144;50.874;4.762;2023-09-19T11:36:18;24.50;1.00
19966;DHT22;10144;50.874;4.762;2023-09-19T11:39:01;24.20;1.00
19966;DHT22;10144;50.874;4.762;2023-09-19T11:41:40;24.00;1.00
19966;DHT22;10144;50.874;4.762;2023-09-19T11:46:33;23.50;1.00
19966;DHT22;10144;50.874;4.762;2023-09-19T11:49:09;23.30;99.90
19966;DHT22;10144;50.874;4.762;2023-09-19T11:51:45;23.10;1.00
19966;DHT22;10144;50.874;4.762;2023-09-19T11:54:13;23.00;99.90
19966;DHT22;10144;50.874;4.762;2023-09-19T11:56:49;22.70;99.90
19966;DHT22;10144;50.874;4.762;2023-09-19T11:59:20;22.50;1.00
19966;DHT22;10144;50.874;4.762;2023-09-19T12:01:57;22.40;99.90
19966;DHT22;10144;50.874;4.762;2023-09-19T12:04:36;22.30;1.00
19966;DHT22;10144;50.874;4.762;2023-09-19T12:07:15;22.00;1.00
19966;DHT22;10144;50.874;4.762;2023-09-19T12:10:03;21.80;99.90
19966;DHT22;10144;50.874;4.762;2023-09-19T12:12:30;21.90;1.00
19966;DHT22;10144;50.874;4.762;2023-09-19T12:14:56;21.80;99.90
19966;DHT22;10144;50.874;4.762;2023-09-19T12:17:39;21.60;1.00
19966;DHT22;10144;50.874;4.762;2023-09-19T12:20:07;21.70;66.30
19966;DHT22;10144;50.874;4.762;2023-09-19T12:22:44;21.70;99.90
19966;DHT22;10144;50.874;4.762;2023-09-19T12:25:13;21.60;1.00
19966;DHT22;10144;50.874;4.762;2023-09-19T12:30:10;21.30;1.00
19966;DHT22;10144;50.874;4.762;2023-09-19T12:32:39;21.20;1.00
19966;DHT22;10144;50.874;4.762;2023-09-19T12:35:09;21.10;1.00
19966;DHT22;10144;50.874;4.762;2023-09-19T12:37:44;20.90;99.90
19966;DHT22;10144;50.874;4.762;2023-09-19T12:40:21;20.80;1.00
19966;DHT22;10144;50.874;4.762;2023-09-19T12:42:57;20.70;99.90
19966;DHT22;10144;50.874;4.762;2023-09-19T12:45:29;20.60;1.00
19966;DHT22;10144;50.874;4.762;2023-09-19T12:48:21;20.40;1.00
19966;DHT22;10144;50.874;4.762;2023-09-19T12:51:04;20.40;1.00
19966;DHT22;10144;50.874;4.762;2023-09-19T12:53:35;20.40;1.00
19966;DHT22;10144;50.874;4.762;2023-09-19T12:56:06;20.40;1.00
19966;DHT22;10144;50.874;4.762;2023-09-19T12:58:34;20.30;1.00
19966;DHT22;10144;50.874;4.762;2023-09-19T13:01:00;20.30;1.00
19966;DHT22;10144;50.874;4.762;2023-09-19T13:03:27;20.60;1.00
19966;DHT22;10144;50.874;4.762;2023-09-19T13:05:58;20.80;1.00
19966;DHT22;10144;50.874;4.762;2023-09-19T13:08:30;20.90;1.00
19966;DHT22;10144;50.874;4.762;2023-09-19T13:11:17;21.10;1.00
19966;DHT22;10144;50.874;4.762;2023-09-19T13:14:20;21.30;1.00
19966;DHT22;10144;50.874;4.762;2023-09-19T13:17:12;21.50;1.00
19966;DHT22;10144;50.874;4.762;2023-09-19T13:19:46;21.80;1.00
19966;DHT22;10144;50.874;4.762;2023-09-19T13:22:43;21.80;99.90
19966;DHT22;10144;50.874;4.762;2023-09-19T13:25:21;22.00;1.00
19966;DHT22;10144;50.874;4.762;2023-09-19T13:27:49;21.90;99.90
19966;DHT22;10144;50.874;4.762;2023-09-19T13:30:20;21.80;99.90
19966;DHT22;10144;50.874;4.762;2023-09-19T13:32:46;21.60;1.00
19966;DHT22;10144;50.874;4.762;2023-09-19T13:35:12;21.40;1.00
19966;DHT22;10144;50.874;4.762;2023-09-19T13:37:39;21.20;1.00
19966;DHT22;10144;50.874;4.762;2023-09-19T13:40:12;21.20;1.00
19966;DHT22;10144;50.874;4.762;2023-09-19T13:42:38;21.10;1.00
19966;DHT22;10144;50.874;4.762;2023-09-19T13:45:04;21.00;1.00
19966;DHT22;10144;50.874;4.762;2023-09-19T13:47:31;20.90;1.00
19966;DHT22;10144;50.874;4.762;2023-09-19T13:49:58;20.80;1.00
19966;DHT22;10144;50.874;4.762;2023-09-19T13:52:24;20.80;1.00
19966;DHT22;10144;50.874;4.762;2023-09-19T13:54:50;20.80;1.00
19966;DHT22;10144;50.874;4.762;2023-09-19T13:57:16;20.90;1.00
19966;DHT22;10144;50.874;4.762;2023-09-19T13:59:42;21.00;1.00
19966;DHT22;10144;50.874;4.762;2023-09-19T14:02:08;21.00;1.00
19966;DHT22;10144;50.874;4.762;2023-09-19T14:04:34;20.90;1.00
19966;DHT22;10144;50.874;4.762;2023-09-19T14:07:02;20.90;1.00
19966;DHT22;10144;50.874;4.762;2023-09-19T14:09:29;20.90;1.00
19966;DHT22;10144;50.874;4.762;2023-09-19T14:11:54;20.90;1.00
19966;DHT22;10144;50.874;4.762;2023-09-19T14:14:20;20.80;1.00
19966;DHT22;10144;50.874;4.762;2023-09-19T14:16:49;20.70;1.00
19966;DHT22;10144;50.874;4.762;2023-09-19T14:19:15;20.70;1.00
19966;DHT22;10144;50.874;4.762;2023-09-19T14:21:42;20.70;1.00
19966;DHT22;10144;50.874;4.762;2023-09-19T14:24:08;20.70;1.00
19966;DHT22;10144;50.874;4.762;2023-09-19T14:26:38;20.70;1.00
19966;DHT22;10144;50.874;4.762;2023-09-19T14:29:04;20.70;1.00
19966;DHT22;10144;50.874;4.762;2023-09-19T14:31:33;20.70;1.00
19966;DHT22;10144;50.874;4.762;2023-09-19T14:33:58;20.70;1.00
19966;DHT22;10144;50.874;4.762;2023-09-19T14:36:25;20.80;1.00
19966;DHT22;10144;50.874;4.762;2023-09-19T14:38:55;20.70;1.00
19966;DHT22;10144;50.874;4.762;2023-09-19T14:41:22;20.70;1.00
19966;DHT22;10144;50.874;4.762;2023-09-19T14:43:51;20.70;1.00
19966;DHT22;10144;50.874;4.762;2023-09-19T14:46:16;20.60;1.00
19966;DHT22;10144;50.874;4.762;2023-09-19T14:48:44;20.60;1.00
19966;DHT22;10144;50.874;4.762;2023-09-19T14:51:13;20.70;1.00
19966;DHT22;10144;50.874;4.762;2023-09-19T14:53:39;20.80;1.00
19966;DHT22;10144;50.874;4.762;2023-09-19T14:56:07;20.90;1.00
19966;DHT22;10144;50.874;4.762;2023-09-19T14:58:33;21.00;1.00
19966;DHT22;10144;50.874;4.762;2023-09-19T15:01:09;21.10;1.00
19966;DHT22;10144;50.874;4.762;2023-09-19T15:03:36;21.00;1.00
19966;DHT22;10144;50.874;4.762;2023-09-19T15:06:06;21.00;1.00
19966;DHT22;10144;50.874;4.762;2023-09-19T15:08:36;21.00;1.00
19966;DHT22;10144;50.874;4.762;2023-09-19T15:11:04;21.00;1.00
19966;DHT22;10144;50.874;4.762;2023-09-19T15:13:34;20.90;1.00
19966;DHT22;10144;50.874;4.762;2023-09-19T15:16:07;20.80;1.00
19966;DHT22;10144;50.874;4.762;2023-09-19T15:18:40;20.70;1.00
19966;DHT22;10144;50.874;4.762;2023-09-19T15:21:08;20.60;1.00
19966;DHT22;10144;50.874;4.762;2023-09-19T15:23:35;20.60;1.00
19966;DHT22;10144;50.874;4.762;2023-09-19T15:26:06;20.60;1.00
19966;DHT22;10144;50.874;4.762;2023-09-19T15:28:32;20.50;1.00
19966;DHT22;10144;50.874;4.762;2023-09-19T15:33:29;20.30;1.00
19966;DHT22;10144;50.874;4.762;2023-09-19T15:36:08;20.20;1.00
19966;DHT22;10144;50.874;4.762;2023-09-19T15:41:26;20.20;1.00
19966;DHT22;10144;50.874;4.762;2023-09-19T15:43:52;20.20;1.00
19966;DHT22;10144;50.874;4.762;2023-09-19T15:46:19;20.10;1.00
19966;DHT22;10144;50.874;4.762;2023-09-19T15:48:45;20.00;1.00
19966;DHT22;10144;50.874;4.762;2023-09-19T15:51:12;20.00;1.00
19966;DHT22;10144;50.874;4.762;2023-09-19T15:53:47;20.20;1.00
19966;DHT22;10144;50.874;4.762;2023-09-19T15:56:14;20.10;1.00
19966;DHT22;10144;50.874;4.762;2023-09-19T15:58:44;20.10;1.00
19966;DHT22;10144;50.874;4.762;2023-09-19T16:01:09;20.00;1.00
19966;DHT22;10144;50.874;4.762;2023-09-19T16:03:36;20.00;1.00
19966;DHT22;10144;50.874;4.762;2023-09-19T16:06:11;20.00;1.00
19966;DHT22;10144;50.874;4.762;2023-09-19T16:08:44;20.00;1.00
19966;DHT22;10144;50.874;4.762;2023-09-19T16:11:11;20.00;1.00
19966;DHT22;10144;50.874;4.762;2023-09-19T16:13:37;20.00;1.00
19966;DHT22;10144;50.874;4.762;2023-09-19T16:16:03;20.10;1.00
19966;DHT22;10144;50.874;4.762;2023-09-19T16:18:30;20.00;1.00
19966;DHT22;10144;50.874;4.762;2023-09-19T16:21:02;20.00;1.00
19966;DHT22;10144;50.874;4.762;2023-09-19T16:23:28;20.00;1.00
19966;DHT22;10144;50.874;4.762;2023-09-19T16:26:08;20.00;1.00
19966;DHT22;10144;50.874;4.762;2023-09-19T16:28:40;20.00;1.00
